Virgil, KS (66870)

2:19 AM CST on January 31, 2015 (GMT -0600)
Toronto, KS | Change Station
CLOSE
Current Station
Personal Weather Station
Location: Toronto, KS
Elevation: 971 ft
Nearby Weather Stations

Elev 971 ft 37.80 °N, 95.95 °W | Updated 4 minutes ago

Rain
Rain
38.6 °F
Feels Like 39 °F
N
0.0
Wind Variable Wind from SE
Gusts 0.0 mph

Today
High -- | Low -- °F
--% Chance of Precip.
Yesterday
High -- | Low -- °F
Precip. -- in
7:29 AM 5:46 PM
Waxing Gibbous, 88% visible
Pressure 30.30 in
Visibility 7.0 miles
Clouds Few 2200 ft
Overcast 3000 ft
Windchill 39 °F
Dew Point 35 °F
Humidity 88%
Rainfall 0.00 in
Snow Depth Not available.
UV 0 out of 12
Pollen .10 out of 12
Air Quality Not available.
Flu Activity Not available.
METAR KEMP 310753Z AUTO 15005KT 7SM -RA FEW022 OVC030 02/02 A3027 RMK AO2 SLP260 P0005 T00220017

More Conditions Fewer Conditions

Pressure 30.30 in
Visibility 7.0 miles
Clouds Few 2200 ft
Overcast 3000 ft
Windchill 39 °F
Dew Point 35 °F
Humidity 88%
Rainfall 0.00 in
Snow Depth Not available.
UV 0 out of 12
Pollen .10 out of 12
Air Quality Not available.
Flu Activity Not available.
METAR KEMP 310753Z AUTO 15005KT 7SM -RA FEW022 OVC030 02/02 A3027 RMK AO2 SLP260 P0005 T00220017

More Conditions Fewer Conditions

10-Day Weather Forecast

Almanac

Astronomy

Jan. 31, 2015 Rise Set
Actual Time
Civil Twilight
Nautical Twilight
Astronomical Twilight
Moon
Length of Visible Light
Length of Day
Tomorrow will be .
, % of the Moon is Illuminated

Today's Extremes

State Highs State Lows

Community

WunderPhotos

Upload Photos

1,792,019 photos uploaded!

WunderBlogs® & News

Nearby

Air Quality

  Air Quality AQ Index Pollutant
Not available.

Snow Depth

Station Depth Elevation

Earthquake Activity

City Distance Mag. Time & Date
Minimum magnitude displayed is 2.5.

Coastal Water Temperatures

Place Temperature

Nearby Weather Stations